Terminal Aerodrome Forecast
Issued by NWS

Home | Current Version | Previous Version | Text Only | Print | Product List | Glossary On
Versions: 1 2 3 4 5 6 7 8 9 10 11 12 13
749
FTUS44 KCRP 221729
TAFLRD
TAF
KLRD 221729Z 2218/2318 14012G18KT P6SM BKN040
     FM230100 12013G18KT P6SM FEW070
     FM230800 12009KT P6SM BKN018
      TEMPO 2308/2312 SCT018
     FM231500 13012KT P6SM BKN028
     FM231700 13012KT P6SM BKN035=

USA.gov is the U.S. government's official web portal to all federal, state and local government web resources and services.